createdAt,value
2022-10-21T00:01:12.682Z,16.87
2022-10-21T00:03:42.986Z,15.77
2022-10-21T00:06:11.537Z,14.33
2022-10-21T00:08:40.530Z,17.67
2022-10-21T00:11:10.237Z,16.47
2022-10-21T00:13:39.998Z,17.50
2022-10-21T00:16:10.394Z,12.47
2022-10-21T00:18:40.953Z,13.73
2022-10-21T00:21:12.281Z,13.47
2022-10-21T00:23:40.957Z,16.10
2022-10-21T00:26:09.881Z,14.37
2022-10-21T00:28:38.364Z,13.27
2022-10-21T00:31:08.125Z,15.67
2022-10-21T00:33:36.889Z,15.30
2022-10-21T00:36:09.632Z,15.23
2022-10-21T00:38:39.481Z,15.57
2022-10-21T00:41:08.285Z,14.50
2022-10-21T00:43:54.259Z,14.67
2022-10-21T00:46:27.079Z,14.57
2022-10-21T00:48:58.977Z,13.10
2022-10-21T00:51:27.545Z,16.83
2022-10-21T00:53:57.328Z,12.53
2022-10-21T00:56:28.611Z,14.80
2022-10-21T00:59:01.494Z,14.80
2022-10-21T01:01:31.474Z,13.90
2022-10-21T01:04:01.531Z,14.70
2022-10-21T01:06:30.738Z,14.87
2022-10-21T01:09:01.057Z,13.40
2022-10-21T01:11:29.867Z,22.00
2022-10-21T01:14:29.173Z,18.70
2022-10-21T01:17:11.536Z,14.13
2022-10-21T01:20:07.467Z,14.20
2022-10-21T01:22:52.995Z,16.53
2022-10-21T01:25:38.793Z,17.67
2022-10-21T01:28:16.598Z,18.70
2022-10-21T01:30:47.874Z,14.13
2022-10-21T01:33:43.904Z,15.33
2022-10-21T01:36:20.304Z,15.30
2022-10-21T01:39:09.555Z,16.30
2022-10-21T01:41:42.457Z,12.93
2022-10-21T01:44:17.348Z,17.30
2022-10-21T01:46:49.735Z,18.43
2022-10-21T01:49:21.965Z,19.70
2022-10-21T01:51:50.299Z,16.60
2022-10-21T01:54:23.481Z,15.43
2022-10-21T01:56:52.443Z,16.20
2022-10-21T01:59:21.400Z,15.60
2022-10-21T02:01:52.086Z,16.43
2022-10-21T02:04:20.877Z,15.47
2022-10-21T02:06:49.330Z,13.73
2022-10-21T02:09:18.284Z,17.77
2022-10-21T02:11:47.815Z,15.10
2022-10-21T02:14:21.251Z,15.20
2022-10-21T02:16:54.018Z,13.77
2022-10-21T02:19:22.822Z,15.23
2022-10-21T02:21:54.249Z,19.40
2022-10-21T02:24:28.942Z,17.23
2022-10-21T02:26:57.367Z,16.23
2022-10-21T02:29:28.768Z,15.70
2022-10-21T02:32:10.458Z,14.07
2022-10-21T02:34:49.879Z,15.03
2022-10-21T02:37:24.878Z,15.30
2022-10-21T02:39:56.523Z,13.90
2022-10-21T02:42:28.583Z,17.63
2022-10-21T02:44:57.045Z,25.00
2022-10-21T02:47:27.187Z,15.33
2022-10-21T02:49:55.593Z,20.00
2022-10-21T02:52:26.068Z,15.67
2022-10-21T02:54:55.353Z,16.20
2022-10-21T02:57:23.702Z,17.47
2022-10-21T02:59:54.315Z,19.00
2022-10-21T03:02:22.651Z,16.60
2022-10-21T03:04:52.424Z,18.97
2022-10-21T03:07:20.748Z,16.20
2022-10-21T03:09:50.017Z,17.17
2022-10-21T03:12:18.396Z,16.60
2022-10-21T03:14:47.026Z,19.63
2022-10-21T03:17:16.085Z,15.47
2022-10-21T03:19:44.443Z,16.10
2022-10-21T03:22:14.260Z,13.57
2022-10-21T03:24:42.837Z,14.37
2022-10-21T03:27:11.305Z,14.60
2022-10-21T03:29:39.781Z,15.23
2022-10-21T03:32:08.160Z,15.80
2022-10-21T03:34:36.506Z,15.63
2022-10-21T03:37:04.847Z,15.80
2022-10-21T03:39:34.920Z,14.93
2022-10-21T03:42:03.265Z,14.60
2022-10-21T03:44:32.057Z,20.83
2022-10-21T03:47:00.392Z,17.07
2022-10-21T03:49:28.730Z,17.03
2022-10-21T03:51:57.202Z,28.77
2022-10-21T03:54:25.634Z,18.00
2022-10-21T03:56:55.441Z,17.83
2022-10-21T03:59:24.321Z,26.10
2022-10-21T04:01:52.643Z,17.33
2022-10-21T04:04:21.105Z,17.70
2022-10-21T04:06:49.482Z,17.30
2022-10-21T04:09:19.294Z,14.00
2022-10-21T04:11:48.034Z,19.57
2022-10-21T04:14:17.857Z,17.73
2022-10-21T04:16:48.052Z,17.57
2022-10-21T04:19:20.520Z,19.40
2022-10-21T04:21:49.195Z,21.93
2022-10-21T04:24:17.768Z,18.10
2022-10-21T04:26:46.175Z,16.30
2022-10-21T04:29:15.151Z,15.40
2022-10-21T04:31:45.056Z,16.43
2022-10-21T04:34:13.597Z,17.90
2022-10-21T04:36:41.857Z,16.03
2022-10-21T04:39:10.500Z,16.10
2022-10-21T04:41:39.195Z,15.17
2022-10-21T04:44:09.895Z,14.50
2022-10-21T04:46:38.390Z,18.53
2022-10-21T04:49:10.523Z,17.63
2022-10-21T04:51:39.109Z,22.10
2022-10-21T04:54:10.573Z,16.10
2022-10-21T04:56:39.141Z,19.77
2022-10-21T04:59:08.056Z,17.20
2022-10-21T05:01:38.485Z,16.33
2022-10-21T05:04:12.972Z,15.70
2022-10-21T05:06:42.692Z,16.30
2022-10-21T05:09:20.762Z,16.60
2022-10-21T05:12:10.056Z,15.23
2022-10-21T05:15:10.909Z,17.27
2022-10-21T05:17:47.281Z,17.10
2022-10-21T05:20:26.804Z,17.87
2022-10-21T05:23:10.188Z,20.03
2022-10-21T05:25:55.197Z,21.13
2022-10-21T05:28:40.553Z,20.43
2022-10-21T05:31:11.108Z,20.13
2022-10-21T05:33:55.858Z,22.63
2022-10-21T05:36:31.692Z,18.40
2022-10-21T05:39:03.114Z,20.73
2022-10-21T05:41:38.071Z,18.57
2022-10-21T05:44:14.695Z,19.30
2022-10-21T05:46:46.543Z,21.70
2022-10-21T05:49:33.290Z,17.23
2022-10-21T05:52:04.866Z,17.40
2022-10-21T05:54:39.921Z,18.30
2022-10-21T05:57:23.657Z,22.37
2022-10-21T05:59:52.538Z,18.07
2022-10-21T06:02:29.804Z,18.87
2022-10-21T06:05:09.597Z,18.47
2022-10-21T06:07:45.964Z,21.60
2022-10-21T06:10:28.376Z,19.70
2022-10-21T06:13:03.672Z,20.57
2022-10-21T06:15:42.055Z,19.97
2022-10-21T06:18:20.642Z,24.37
2022-10-21T06:20:57.266Z,20.63
2022-10-21T06:23:45.412Z,20.53
2022-10-21T06:26:22.391Z,21.70
2022-10-21T06:29:04.580Z,21.90
2022-10-21T06:31:45.271Z,20.53
2022-10-21T06:34:20.256Z,17.57
2022-10-21T06:36:54.698Z,19.07
2022-10-21T06:39:33.216Z,25.93
2022-10-21T06:42:21.039Z,22.97
2022-10-21T06:44:53.526Z,19.67
2022-10-21T06:47:34.951Z,19.40
2022-10-21T06:50:14.475Z,20.90
2022-10-21T06:52:51.188Z,21.20
2022-10-21T06:55:46.591Z,20.77
2022-10-21T06:58:29.095Z,18.77
2022-10-21T07:01:00.806Z,20.13
2022-10-21T07:03:36.965Z,23.00
2022-10-21T07:06:08.047Z,22.63
2022-10-21T07:08:58.122Z,20.70
2022-10-21T07:11:36.541Z,20.90
2022-10-21T07:14:08.925Z,18.37
2022-10-21T07:16:42.701Z,23.23
2022-10-21T07:19:18.373Z,15.60
2022-10-21T07:21:49.516Z,21.57
2022-10-21T07:24:22.814Z,22.07
2022-10-21T07:27:09.490Z,21.57
2022-10-21T07:29:45.792Z,20.67
2022-10-21T07:32:17.882Z,16.27
2022-10-21T07:34:51.378Z,16.20
2022-10-21T07:37:27.796Z,22.00
2022-10-21T07:40:14.884Z,21.00
2022-10-21T07:42:48.839Z,23.83
2022-10-21T07:45:33.419Z,22.17
2022-10-21T07:48:06.485Z,17.27
2022-10-21T07:50:40.100Z,17.60
2022-10-21T07:53:17.958Z,17.80
2022-10-21T07:55:50.819Z,17.33
2022-10-21T07:58:47.790Z,20.37
2022-10-21T08:01:34.328Z,20.93
2022-10-21T08:04:07.323Z,23.83
2022-10-21T08:06:44.796Z,22.47
2022-10-21T08:09:40.696Z,17.30
2022-10-21T08:12:20.836Z,17.03
2022-10-21T08:15:05.349Z,19.13
2022-10-21T08:17:39.178Z,19.23
2022-10-21T08:20:14.034Z,19.30
2022-10-21T08:22:51.224Z,17.90
2022-10-21T08:25:26.836Z,19.50
2022-10-21T08:27:59.356Z,20.60
2022-10-21T08:30:42.389Z,20.50
2022-10-21T08:33:17.821Z,18.10
2022-10-21T08:35:48.798Z,16.80
2022-10-21T08:38:22.730Z,19.00
2022-10-21T08:40:58.017Z,18.13
2022-10-21T08:43:35.684Z,17.40
2022-10-21T08:46:10.382Z,18.10
2022-10-21T08:48:49.514Z,20.80
2022-10-21T08:51:25.543Z,19.57
2022-10-21T08:54:03.213Z,20.90
2022-10-21T08:56:33.516Z,17.63
2022-10-21T08:59:24.561Z,16.77
2022-10-21T09:02:05.578Z,19.40
2022-10-21T09:04:52.829Z,21.67
2022-10-21T09:07:33.016Z,20.83
2022-10-21T09:10:10.007Z,18.53
2022-10-21T09:13:00.403Z,16.30
2022-10-21T09:16:10.307Z,19.20
2022-10-21T09:18:52.261Z,19.73
2022-10-21T09:21:32.039Z,18.20
2022-10-21T09:24:17.286Z,17.27
2022-10-21T09:26:49.896Z,20.93
2022-10-21T09:29:37.856Z,17.20
2022-10-21T09:32:23.075Z,24.30
2022-10-21T09:35:17.479Z,18.17
2022-10-21T09:37:50.607Z,17.70
2022-10-21T09:40:26.793Z,22.23
2022-10-21T09:43:13.855Z,24.77
2022-10-21T09:45:45.844Z,15.93
2022-10-21T09:48:55.037Z,17.83
2022-10-21T09:51:42.866Z,19.50
2022-10-21T09:54:33.806Z,18.10
2022-10-21T09:57:16.100Z,19.20
2022-10-21T09:59:59.323Z,16.40
2022-10-21T10:02:33.624Z,18.93
2022-10-21T10:05:36.216Z,17.97
2022-10-21T10:08:37.345Z,15.57
2022-10-21T10:11:19.126Z,18.10
2022-10-21T10:13:56.029Z,15.90
2022-10-21T10:16:33.741Z,22.70
2022-10-21T10:19:23.970Z,16.10
2022-10-21T10:22:17.631Z,18.13
2022-10-21T10:25:10.479Z,17.67
2022-10-21T10:27:56.213Z,17.83
2022-10-21T10:30:28.819Z,15.60
2022-10-21T10:33:18.753Z,17.50
2022-10-21T10:36:01.195Z,15.30
2022-10-21T10:38:52.354Z,17.33
2022-10-21T10:41:49.461Z,17.40
2022-10-21T10:44:33.402Z,15.00
2022-10-21T10:47:08.656Z,17.40
2022-10-21T10:49:50.176Z,17.20
2022-10-21T10:52:31.365Z,17.90
2022-10-21T10:55:31.722Z,16.23
2022-10-21T10:58:12.404Z,18.50
2022-10-21T11:03:51.211Z,15.63
2022-10-21T11:06:42.966Z,14.23
2022-10-21T11:09:13.751Z,15.37
2022-10-21T11:11:57.181Z,17.33
2022-10-21T11:14:44.018Z,17.07
2022-10-21T11:17:16.147Z,19.53
2022-10-21T11:19:57.769Z,16.30
2022-10-21T11:22:55.519Z,17.53
2022-10-21T11:25:39.769Z,15.10
2022-10-21T11:28:24.854Z,17.87
2022-10-21T11:31:17.013Z,14.43
2022-10-21T11:34:08.420Z,17.90
2022-10-21T11:36:53.787Z,21.03
2022-10-21T11:39:47.828Z,17.97
2022-10-21T11:42:24.971Z,15.80
2022-10-21T11:45:20.976Z,15.33
2022-10-21T11:48:33.806Z,15.77
2022-10-21T11:54:14.000Z,13.33
2022-10-21T11:57:02.955Z,23.30
2022-10-21T11:59:50.217Z,13.37
2022-10-21T12:02:30.517Z,15.90
2022-10-21T12:05:22.216Z,23.63
2022-10-21T12:08:00.971Z,18.00
2022-10-21T12:10:51.298Z,14.67
2022-10-21T12:13:27.719Z,14.90
2022-10-21T12:16:21.883Z,14.90
2022-10-21T12:19:04.655Z,14.97
2022-10-21T12:21:39.689Z,14.17
2022-10-21T12:24:22.267Z,13.70
2022-10-21T12:27:02.482Z,15.37
2022-10-21T12:29:44.060Z,16.43
2022-10-21T12:32:33.926Z,15.63
2022-10-21T12:35:27.896Z,16.40
2022-10-21T12:38:27.604Z,15.30
2022-10-21T12:41:29.714Z,13.60
2022-10-21T12:44:18.087Z,15.27
2022-10-21T12:47:02.421Z,18.40
2022-10-21T12:49:48.746Z,14.93
2022-10-21T12:52:26.063Z,14.87
2022-10-21T12:55:08.176Z,16.57
2022-10-21T12:57:46.401Z,14.37
2022-10-21T13:00:56.132Z,14.90
2022-10-21T13:03:53.178Z,14.57
2022-10-21T13:06:55.223Z,14.50
2022-10-21T13:09:41.322Z,16.73
2022-10-21T13:12:42.595Z,15.20
2022-10-21T13:15:48.417Z,16.17
2022-10-21T13:18:54.732Z,13.20
2022-10-21T13:21:42.195Z,14.10
2022-10-21T13:24:21.940Z,12.70
2022-10-21T13:27:00.425Z,14.40
2022-10-21T13:30:01.156Z,15.50
2022-10-21T13:32:51.164Z,12.27
2022-10-21T13:35:31.795Z,15.13
2022-10-21T13:38:13.143Z,19.60
2022-10-21T13:40:55.187Z,22.60
2022-10-21T13:43:41.949Z,13.53
2022-10-21T13:46:18.386Z,15.03
2022-10-21T13:48:54.726Z,16.03
2022-10-21T13:51:29.542Z,15.70
2022-10-21T13:54:16.063Z,19.30
2022-10-21T13:56:56.581Z,16.30
2022-10-21T13:59:36.115Z,15.67
2022-10-21T14:02:09.605Z,14.87
2022-10-21T14:04:45.881Z,14.33
2022-10-21T14:07:30.087Z,15.47
2022-10-21T14:10:07.528Z,18.67
2022-10-21T14:12:53.010Z,16.30
2022-10-21T14:15:35.340Z,20.40
2022-10-21T14:18:37.312Z,16.00
2022-10-21T14:21:11.900Z,15.83
2022-10-21T14:23:48.553Z,16.40
2022-10-21T14:26:18.474Z,15.37
2022-10-21T14:28:56.251Z,19.33
2022-10-21T14:31:46.373Z,18.53
2022-10-21T14:34:33.247Z,19.47
2022-10-21T14:37:14.756Z,17.70
2022-10-21T14:40:02.757Z,16.73
2022-10-21T14:42:38.307Z,20.03
2022-10-21T14:45:19.721Z,20.67
2022-10-21T14:47:54.859Z,16.37
2022-10-21T14:50:52.367Z,20.13
2022-10-21T14:54:06.371Z,19.23
2022-10-21T14:56:38.938Z,17.80
2022-10-21T14:59:20.904Z,19.67
2022-10-21T15:01:59.158Z,17.07
2022-10-21T15:05:02.370Z,19.00
2022-10-21T15:07:39.398Z,20.73
2022-10-21T15:10:52.200Z,21.47
2022-10-21T15:13:29.645Z,14.40
2022-10-21T15:16:06.279Z,16.10
2022-10-21T15:19:07.318Z,17.20
2022-10-21T15:21:51.847Z,15.03
2022-10-21T15:24:44.609Z,17.03
2022-10-21T15:27:25.139Z,16.73
2022-10-21T15:30:19.837Z,22.13
2022-10-21T15:33:07.611Z,14.63
2022-10-21T15:35:48.213Z,16.90
2022-10-21T15:38:20.374Z,17.40
2022-10-21T15:40:54.325Z,18.40
2022-10-21T15:43:24.143Z,17.47
2022-10-21T15:45:58.697Z,18.40
2022-10-21T15:48:28.332Z,13.27
2022-10-21T15:50:58.086Z,22.50
2022-10-21T15:53:28.638Z,18.73
2022-10-21T15:56:01.763Z,19.63
2022-10-21T15:58:33.910Z,14.77
2022-10-21T16:01:02.637Z,32.67
2022-10-21T16:03:31.756Z,25.30
2022-10-21T16:06:00.831Z,20.10
2022-10-21T16:08:33.290Z,15.00
2022-10-21T16:11:03.711Z,17.37
2022-10-21T16:13:32.473Z,19.10
2022-10-21T16:16:01.681Z,17.53
2022-10-21T16:18:37.779Z,20.63
2022-10-21T16:21:09.676Z,17.00
2022-10-21T16:23:39.831Z,19.60
2022-10-21T16:26:18.925Z,17.13
2022-10-21T16:28:52.013Z,18.20
2022-10-21T16:31:26.313Z,21.20
2022-10-21T16:33:55.033Z,17.47
2022-10-21T16:36:26.314Z,18.33
2022-10-21T16:39:02.161Z,19.27
2022-10-21T16:41:35.582Z,21.43
2022-10-21T16:44:11.376Z,19.67
2022-10-21T16:46:44.142Z,20.57
2022-10-21T16:49:18.530Z,20.30
2022-10-21T16:51:47.343Z,28.43
2022-10-21T16:54:17.573Z,19.03
2022-10-21T16:56:55.753Z,23.63
2022-10-21T16:59:25.305Z,21.53
2022-10-21T17:02:00.312Z,18.67
2022-10-21T17:04:33.447Z,21.17
2022-10-21T17:07:03.355Z,20.67
2022-10-21T17:09:33.104Z,19.07
2022-10-21T17:12:06.529Z,17.50
2022-10-21T17:14:37.722Z,21.80
2022-10-21T17:17:12.193Z,23.37
2022-10-21T17:19:42.107Z,19.60
2022-10-21T17:22:13.785Z,23.03
2022-10-21T17:24:45.783Z,24.97
2022-10-21T17:27:19.664Z,18.90
2022-10-21T17:29:49.456Z,22.60
2022-10-21T17:32:20.850Z,21.00
2022-10-21T17:34:50.532Z,26.37
2022-10-21T17:37:19.626Z,21.83
2022-10-21T17:39:49.516Z,25.70
2022-10-21T17:42:20.824Z,21.20
2022-10-21T17:44:50.126Z,20.97
2022-10-21T17:47:22.148Z,22.07
2022-10-21T17:49:54.351Z,22.23
2022-10-21T17:52:23.715Z,20.07
2022-10-21T17:54:56.010Z,21.40
2022-10-21T17:57:26.873Z,23.00
2022-10-21T17:59:56.992Z,24.53
2022-10-21T18:02:28.754Z,26.03
2022-10-21T18:04:58.286Z,24.80
2022-10-21T18:07:30.585Z,21.87
2022-10-21T18:10:01.275Z,24.33
2022-10-21T18:12:35.002Z,21.50
2022-10-21T18:15:07.464Z,23.37
2022-10-21T18:17:40.387Z,30.07
2022-10-21T18:20:11.861Z,22.00
2022-10-21T18:22:41.598Z,23.53
2022-10-21T18:25:12.939Z,23.77
2022-10-21T18:27:46.951Z,21.47
2022-10-21T18:30:17.043Z,25.23
2022-10-21T18:32:47.049Z,21.60
2022-10-21T18:35:18.630Z,21.90
2022-10-21T18:37:48.962Z,20.90
2022-10-21T18:40:20.388Z,20.57
2022-10-21T18:42:55.665Z,25.20
2022-10-21T18:45:29.573Z,22.90
2022-10-21T18:48:00.308Z,22.77
2022-10-21T18:50:31.576Z,29.03
2022-10-21T18:53:04.020Z,21.40
2022-10-21T18:55:35.791Z,22.70
2022-10-21T18:58:07.914Z,26.43
2022-10-21T19:00:38.301Z,26.63
2022-10-21T19:03:10.513Z,25.47
2022-10-21T19:05:42.540Z,28.93
2022-10-21T19:08:28.428Z,26.67
2022-10-21T19:11:03.188Z,26.80
2022-10-21T19:13:37.442Z,29.10
2022-10-21T19:16:15.623Z,26.93
2022-10-21T19:18:52.340Z,27.73
2022-10-21T19:24:15.175Z,26.30
2022-10-21T19:26:50.666Z,25.30
2022-10-21T19:29:25.693Z,24.93
2022-10-21T19:32:00.122Z,28.50
2022-10-21T19:34:30.531Z,25.80
2022-10-21T19:37:16.326Z,23.50
2022-10-21T19:39:56.571Z,24.17
2022-10-21T19:42:31.268Z,27.10
2022-10-21T19:45:14.998Z,23.67
2022-10-21T19:47:57.581Z,25.10
2022-10-21T19:50:31.880Z,30.10
2022-10-21T19:53:03.811Z,30.20
2022-10-21T19:58:37.532Z,29.57
2022-10-21T20:01:21.918Z,26.40
2022-10-21T20:03:55.681Z,47.30
2022-10-21T20:06:39.194Z,30.10
2022-10-21T20:09:15.583Z,26.40
2022-10-21T20:11:49.641Z,23.70
2022-10-21T20:14:29.224Z,23.43
2022-10-21T20:17:24.652Z,22.37
2022-10-21T20:23:11.103Z,26.53
2022-10-21T20:26:13.496Z,24.10
2022-10-21T20:29:03.185Z,22.80
2022-10-21T20:31:46.054Z,27.10
2022-10-21T20:34:37.530Z,30.27
2022-10-21T20:37:16.326Z,23.03
2022-10-21T20:39:54.553Z,27.30
2022-10-21T20:42:49.831Z,26.77
2022-10-21T20:45:45.623Z,27.17
2022-10-21T20:48:31.704Z,30.90
2022-10-21T20:51:09.766Z,24.50
2022-10-21T20:53:41.156Z,25.07
2022-10-21T20:56:15.367Z,23.23
2022-10-21T20:58:57.745Z,24.70
2022-10-21T21:01:36.712Z,20.47
2022-10-21T21:04:32.032Z,25.10
2022-10-21T21:07:26.771Z,23.60
2022-10-21T21:10:03.849Z,22.83
2022-10-21T21:12:38.635Z,30.07
2022-10-21T21:15:10.355Z,27.60
2022-10-21T21:17:43.438Z,23.90
2022-10-21T21:20:21.881Z,28.90
2022-10-21T21:22:55.935Z,31.67
2022-10-21T21:25:24.881Z,30.70
2022-10-21T21:27:53.326Z,28.23
2022-10-21T21:30:22.480Z,28.60
2022-10-21T21:32:51.576Z,25.50
2022-10-21T21:35:20.237Z,29.90
2022-10-21T21:37:48.872Z,23.40
2022-10-21T21:40:18.974Z,22.73
2022-10-21T21:42:47.616Z,26.03
2022-10-21T21:45:35.013Z,27.50
2022-10-21T21:48:03.368Z,25.30
2022-10-21T21:50:31.753Z,23.87
2022-10-21T21:53:00.475Z,26.37
2022-10-21T21:55:31.241Z,23.47
2022-10-21T21:58:04.351Z,24.90
2022-10-21T22:00:35.428Z,23.10
2022-10-21T22:03:04.106Z,27.30
2022-10-21T22:05:35.437Z,21.00
2022-10-21T22:08:07.288Z,26.27
2022-10-21T22:10:38.621Z,22.37
2022-10-21T22:13:07.360Z,22.10
2022-10-21T22:15:47.581Z,24.67
2022-10-21T22:18:17.066Z,19.30
2022-10-21T22:20:52.830Z,21.40
2022-10-21T22:23:23.927Z,25.97
2022-10-21T22:25:53.999Z,21.50
2022-10-21T22:28:23.153Z,25.70
2022-10-21T22:30:59.225Z,22.33
2022-10-21T22:33:28.100Z,25.93
2022-10-21T22:36:00.799Z,20.37
2022-10-21T22:38:30.242Z,21.67
2022-10-21T22:41:02.991Z,21.30
2022-10-21T22:43:32.564Z,24.60
2022-10-21T22:46:09.699Z,24.97
2022-10-21T22:48:45.848Z,24.10
2022-10-21T22:51:17.446Z,23.40
2022-10-21T22:53:46.819Z,25.50
2022-10-21T22:56:19.597Z,24.10
2022-10-21T22:58:50.998Z,19.83
2022-10-21T23:01:19.725Z,21.73
2022-10-21T23:03:48.345Z,21.80
2022-10-21T23:06:20.251Z,17.83
2022-10-21T23:08:48.982Z,20.63
2022-10-21T23:11:21.439Z,22.23
2022-10-21T23:14:02.507Z,23.10
2022-10-21T23:16:37.679Z,24.53
2022-10-21T23:19:06.625Z,22.33
2022-10-21T23:21:36.456Z,29.00
2022-10-21T23:24:07.209Z,26.23
2022-10-21T23:26:39.255Z,17.20
2022-10-21T23:29:09.345Z,28.17
2022-10-21T23:31:38.040Z,20.07
2022-10-21T23:34:08.661Z,22.00
2022-10-21T23:36:37.577Z,21.43
2022-10-21T23:39:10.140Z,18.37
2022-10-21T23:41:40.292Z,23.60
2022-10-21T23:44:11.555Z,24.03
2022-10-21T23:46:41.418Z,21.40
2022-10-21T23:49:10.415Z,23.07
2022-10-21T23:51:41.695Z,23.43
2022-10-21T23:54:10.364Z,21.47
2022-10-21T23:56:41.990Z,20.83
2022-10-21T23:59:10.805Z,22.07
